Arctic Village, AK

12:07 AM AKDT on May 26, 2017 (GMT -0800)
Arctic Village

Weather History for PARC - September, 2014

Change the Weather History Date:

Sunday, September 14, 2014

  Actual Average Record
Temperature  
Mean Temperature 44 °F -  
Max Temperature 50 °F 43 °F 59 °F (2011)
Min Temperature 37 °F 24 °F 15 °F (2008)
Degree Days  
Heating Degree Days 22    
Moisture  
Dew Point 41 °F    
Average Humidity 91    
Maximum Humidity 100    
Minimum Humidity 81    
Precipitation  
Precipitation 0.00 in - - ()
Sea Level Pressure  
Sea Level Pressure 29.73 in    
Wind  
Wind Speed 6 mph (ENE)    
Max Wind Speed 9 mph    
Max Gust Speed -    
Visibility 10 miles    
Events      
Averages and records for this station are not official NWS values.
T = Trace of Precipitation, MM = Missing Value Source: NWS Daily Summary

Daily Weather History Graph

Daily Weather History Graph

Search for Another Location

Airport or City:

Trip Planner

Search our weather history database for the weather conditions in past years. The results will help you decide how hot, cold, wet, or windy it might be!

Date:

Astronomy

Sep. 14, 2014 Rise Set
Actual Time 6:55 AM AKDT 8:17 PM AKDT
Civil Twilight 5:57 AM AKDT 9:15 PM AKDT
Nautical Twilight 4:39 AM AKDT 10:32 PM AKDT
Astronomical Twilight 2:27 AM AKDT 12:33 AM AKDT
Moon 9:13 PM AKDT (9/14) 4:13 PM AKDT (9/14)
Length of Visible Light 15h 18m
Length of Day
13h 21m
Waning Gibbous, 63% of the Moon is Illuminated
Sep 14
Waning Gibbous
Sep 15
Last Quarter
Sep 23
New
Oct 1
First Quarter
Oct 8
Full

Hourly Weather History & Observations

Time (AKDT) Temp. Windchill Dew Point Humidity Pressure Visibility Wind Dir Wind Speed Gust Speed Precip Events Conditions
12:16 AM 46.4 °F 42.9 °F 41.0 °F 81% 29.75 in 10.0 mi NNE 6.9 mph - N/A   Mostly Cloudy
12:36 AM 44.6 °F 40.2 °F 41.0 °F 87% 29.75 in 10.0 mi NNE 8.1 mph - N/A   Scattered Clouds
12:56 AM 44.6 °F 40.2 °F 39.2 °F 81% 29.75 in 10.0 mi NNE 8.1 mph - N/A   Clear
1:16 AM 44.6 °F 40.7 °F 39.2 °F 81% 29.75 in 10.0 mi NE 6.9 mph - N/A   Clear
1:36 AM 42.8 °F 41.1 °F 39.2 °F 87% 29.75 in 10.0 mi NE 3.5 mph - N/A   Clear
1:56 AM 42.8 °F 40.1 °F 39.2 °F 87% 29.75 in 10.0 mi East 4.6 mph - N/A   Clear
2:16 AM 42.8 °F 38.6 °F 39.2 °F 87% 29.75 in 10.0 mi ENE 6.9 mph - N/A   Clear
2:36 AM 44.6 °F 41.4 °F 39.2 °F 81% 29.75 in 10.0 mi ENE 5.8 mph - N/A   Clear
2:56 AM 42.8 °F 38.6 °F 39.2 °F 87% 29.74 in 10.0 mi ENE 6.9 mph - N/A   Clear
3:16 AM 42.8 °F 39.3 °F 39.2 °F 87% 29.75 in 10.0 mi East 5.8 mph - N/A   Clear
3:36 AM 42.8 °F 40.1 °F 39.2 °F 87% 29.74 in 10.0 mi East 4.6 mph - N/A   Clear
3:56 AM 41.0 °F 37.1 °F 37.4 °F 87% 29.75 in 10.0 mi ENE 5.8 mph - N/A   Clear
4:16 AM 41.0 °F 38.0 °F 37.4 °F 87% 29.75 in 10.0 mi ENE 4.6 mph - N/A   Clear
4:36 AM 41.0 °F 39.0 °F 37.4 °F 87% 29.75 in 10.0 mi East 3.5 mph - N/A   Clear
4:56 AM 39.2 °F 35.9 °F 37.4 °F 93% 29.75 in 10.0 mi NE 4.6 mph - N/A   Clear
5:16 AM 37.4 °F 33.8 °F 35.6 °F 93% 29.75 in 10.0 mi ENE 4.6 mph - N/A   Clear
5:36 AM 39.2 °F 37.0 °F 37.4 °F 93% 29.75 in 10.0 mi East 3.5 mph - N/A   Clear
5:56 AM 37.4 °F 32.8 °F 35.6 °F 93% 29.75 in 10.0 mi ENE 5.8 mph - N/A   Clear
6:16 AM 37.4 °F 33.8 °F 35.6 °F 93% 29.75 in 10.0 mi ENE 4.6 mph - N/A   Clear
6:36 AM 37.4 °F 34.9 °F 37.4 °F 100% 29.75 in 10.0 mi ENE 3.5 mph - N/A   Clear
6:56 AM 37.4 °F 32.8 °F 37.4 °F 100% 29.75 in 10.0 mi ENE 5.8 mph - N/A   Clear
7:16 AM 37.4 °F 33.8 °F 37.4 °F 100% 29.75 in 10.0 mi ENE 4.6 mph - N/A   Clear
7:36 AM 37.4 °F 33.8 °F 35.6 °F 93% 29.74 in 10.0 mi NNE 4.6 mph - N/A   Clear
7:56 AM 37.4 °F 33.8 °F 35.6 °F 93% 29.74 in 10.0 mi East 4.6 mph - N/A   Clear
8:16 AM 37.4 °F 30.8 °F 37.4 °F 100% 29.74 in 10.0 mi East 9.2 mph - N/A   Clear
8:36 AM 39.2 °F 34.2 °F 37.4 °F 93% 29.74 in 10.0 mi East 6.9 mph - N/A   Clear
8:56 AM 39.2 °F 35.0 °F 37.4 °F 93% 29.73 in 10.0 mi ENE 5.8 mph - N/A   Clear
9:16 AM 39.2 °F 34.2 °F 37.4 °F 93% 29.73 in 10.0 mi ENE 6.9 mph - N/A   Partly Cloudy
9:36 AM 39.2 °F 34.2 °F 37.4 °F 93% 29.73 in 10.0 mi East 6.9 mph - N/A   Mostly Cloudy
9:56 AM 39.2 °F 33.6 °F 37.4 °F 93% 29.73 in 10.0 mi East 8.1 mph - N/A   Mostly Cloudy
10:16 AM 41.0 °F 35.8 °F 37.4 °F 87% 29.73 in 10.0 mi East 8.1 mph - N/A   Mostly Cloudy
10:36 AM 42.8 °F 39.3 °F 39.2 °F 87% 29.73 in 10.0 mi ENE 5.8 mph - N/A   Scattered Clouds
10:56 AM 42.8 °F 40.1 °F 39.2 °F 87% 29.74 in 10.0 mi ENE 4.6 mph - N/A   Mostly Cloudy
11:16 AM 42.8 °F 38.6 °F 39.2 °F 87% 29.73 in 10.0 mi ENE 6.9 mph - N/A   Mostly Cloudy
11:36 AM 42.8 °F 37.5 °F 39.2 °F 87% 29.73 in 10.0 mi East 9.2 mph - N/A   Scattered Clouds
11:56 AM 44.6 °F 40.2 °F 39.2 °F 81% 29.73 in 10.0 mi East 8.1 mph - N/A   Mostly Cloudy
12:16 PM 44.6 °F 40.2 °F 41.0 °F 87% 29.73 in 10.0 mi East 8.1 mph - N/A   Partly Cloudy
12:36 PM 44.6 °F 41.4 °F 41.0 °F 87% 29.73 in 10.0 mi East 5.8 mph - N/A   Partly Cloudy
12:56 PM 44.6 °F 40.7 °F 41.0 °F 87% 29.73 in 10.0 mi East 6.9 mph - N/A   Clear
1:16 PM 46.4 °F 43.5 °F 41.0 °F 81% 29.74 in 10.0 mi East 5.8 mph - N/A   Partly Cloudy
1:36 PM 46.4 °F 42.9 °F 42.8 °F 87% 29.73 in 9.0 mi NE 6.9 mph - N/A   Mostly Cloudy
1:56 PM 46.4 °F 43.5 °F 42.8 °F 87% 29.73 in 9.0 mi East 5.8 mph - N/A   Overcast
2:16 PM 46.4 °F 43.5 °F 44.6 °F 93% 29.73 in 10.0 mi East 5.8 mph - N/A   Overcast
2:36 PM 46.4 °F 43.5 °F 44.6 °F 93% 29.73 in 10.0 mi East 5.8 mph - N/A   Overcast
2:56 PM 46.4 °F 42.4 °F 44.6 °F 93% 29.73 in 10.0 mi ENE 8.1 mph - N/A   Scattered Clouds
3:16 PM 48.2 °F - 44.6 °F 87% 29.72 in 10.0 mi ENE 8.1 mph - N/A   Clear
3:36 PM 48.2 °F - 44.6 °F 87% 29.72 in 10.0 mi ENE 6.9 mph - N/A   Mostly Cloudy
3:56 PM 48.2 °F - 44.6 °F 87% 29.72 in 10.0 mi NE 4.6 mph - N/A   Overcast
4:16 PM 48.2 °F - 44.6 °F 87% 29.72 in 10.0 mi ENE 4.6 mph - N/A   Overcast
4:36 PM 48.2 °F - 44.6 °F 87% 29.72 in 10.0 mi NNE 4.6 mph - N/A   Overcast
4:56 PM 48.2 °F - 46.4 °F 93% 29.71 in 10.0 mi NNE 6.9 mph - N/A   Overcast
5:16 PM 50.0 °F - 46.4 °F 87% 29.71 in 10.0 mi NNE 6.9 mph - N/A   Overcast
5:36 PM 50.0 °F - 46.4 °F 87% 29.71 in 9.0 mi ENE 6.9 mph - N/A   Overcast
5:56 PM 48.2 °F - 46.4 °F 93% 29.71 in 10.0 mi ENE 6.9 mph - N/A   Overcast
6:16 PM 48.2 °F - 46.4 °F 93% 29.71 in 10.0 mi NE 5.8 mph - N/A   Overcast
6:36 PM 48.2 °F - 46.4 °F 93% 29.71 in 8.0 mi East 6.9 mph - N/A   Mostly Cloudy
6:56 PM 48.2 °F - 46.4 °F 93% 29.71 in 10.0 mi East 5.8 mph - N/A   Mostly Cloudy
7:16 PM 48.2 °F - 46.4 °F 93% 29.71 in 10.0 mi East 6.9 mph - N/A   Overcast
7:36 PM 48.2 °F - 46.4 °F 93% 29.71 in 10.0 mi East 6.9 mph - N/A   Mostly Cloudy
7:56 PM 46.4 °F 42.9 °F 44.6 °F 93% 29.71 in 10.0 mi East 6.9 mph - N/A   Partly Cloudy
8:16 PM 46.4 °F 45.2 °F 44.6 °F 93% 29.71 in 10.0 mi East 3.5 mph - N/A   Scattered Clouds
8:36 PM 46.4 °F - 44.6 °F 93% 29.71 in 10.0 mi Calm Calm - N/A   Mostly Cloudy
8:56 PM 46.4 °F 43.5 °F 44.6 °F 93% 29.71 in 10.0 mi East 5.8 mph - N/A   Mostly Cloudy
9:16 PM 46.4 °F 42.9 °F 44.6 °F 93% 29.71 in 10.0 mi East 6.9 mph - N/A   Partly Cloudy
9:36 PM 46.4 °F 42.9 °F 44.6 °F 93% 29.71 in 10.0 mi East 6.9 mph - N/A   Clear
9:56 PM 44.6 °F 41.4 °F 44.6 °F 100% 29.71 in 10.0 mi East 5.8 mph - N/A   Partly Cloudy
10:16 PM 44.6 °F 42.2 °F 42.8 °F 93% 29.71 in 10.0 mi East 4.6 mph - N/A   Mostly Cloudy
10:36 PM 44.6 °F 43.1 °F 44.6 °F 100% 29.71 in 10.0 mi East 3.5 mph - N/A   Overcast
10:56 PM 44.6 °F 42.2 °F 42.8 °F 93% 29.71 in 10.0 mi East 4.6 mph - N/A   Overcast
11:16 PM 44.6 °F 40.7 °F 44.6 °F 100% 29.71 in 10.0 mi East 6.9 mph - N/A   Overcast
11:36 PM 44.6 °F 42.2 °F 44.6 °F 100% 29.71 in 10.0 mi ENE 4.6 mph - N/A   Overcast
11:56 PM 44.6 °F - 44.6 °F 100% 29.71 in 10.0 mi Calm Calm - N/A   Overcast